Time;durP1;ratioP1;P1;durP2;ratioP2;P2;SDS_P1;SDS_P2;PMS_P1;PMS_P2;Temp;Humidity;BMP_temperature;BMP_pressure;BME280_temperature;BME280_humidity;BME280_pressure;Samples;Min_cycle;Max_cycle;Signal;HPM_P1;HPM_P2
2023/06/08 00:01:44;;;;;;;;;;;21.70;92.90;;;;;;5058649;28;19916;-57
2023/06/08 00:04:10;;;;;;;;;;;21.70;85.90;;;;;;5058781;28;19978;-58
2023/06/08 00:06:37;;;;;;;;;;;21.60;87.90;;;;;;5058711;28;19913;-58
2023/06/08 00:09:04;;;;;;;;;;;21.60;87.10;;;;;;5058436;28;20332;-58
2023/06/08 00:11:31;;;;;;;;;;;21.60;90.80;;;;;;5058328;28;19913;-57
2023/06/08 00:13:57;;;;;;;;;;;21.60;92.80;;;;;;5058167;28;20326;-58
2023/06/08 00:16:24;;;;;;;;;;;21.60;89.30;;;;;;5058610;28;19923;-58
2023/06/08 00:18:52;;;;;;;;;;;21.60;92.60;;;;;;5058122;28;19916;-57
2023/06/08 00:21:18;;;;;;;;;;;21.50;86.80;;;;;;5058393;28;19944;-57
2023/06/08 00:23:44;;;;;;;;;;;21.50;89.90;;;;;;5058310;28;20278;-58
2023/06/08 00:26:09;;;;;;;;;;;21.50;93.00;;;;;;5058368;28;19909;-57
2023/06/08 00:28:35;;;;;;;;;;;21.50;93.60;;;;;;5058361;28;20414;-57
2023/06/08 00:31:01;;;;;;;;;;;21.50;89.40;;;;;;5040184;28;20383;-55
2023/06/08 00:33:26;;;;;;;;;;;21.50;92.20;;;;;;5057314;28;19909;-57
2023/06/08 00:35:52;;;;;;;;;;;21.50;89.90;;;;;;5058256;28;20388;-58
2023/06/08 00:38:17;;;;;;;;;;;21.50;90.90;;;;;;5058012;28;19909;-57
2023/06/08 00:40:43;;;;;;;;;;;21.40;88.80;;;;;;5057809;28;19916;-57
2023/06/08 00:43:09;;;;;;;;;;;21.40;87.90;;;;;;5058204;28;19909;-58
2023/06/08 00:45:34;;;;;;;;;;;21.40;89.20;;;;;;5058392;28;20315;-58
2023/06/08 00:48:02;;;;;;;;;;;21.40;89.30;;;;;;5057994;28;20350;-57
2023/06/08 00:50:30;;;;;;;;;;;21.40;91.90;;;;;;5057946;28;19909;-58
2023/06/08 00:52:56;;;;;;;;;;;21.30;90.10;;;;;;5058044;28;19916;-57
2023/06/08 00:55:24;;;;;;;;;;;21.30;89.30;;;;;;5057733;28;19909;-58
2023/06/08 00:57:50;;;;;;;;;;;21.30;88.50;;;;;;5057616;28;20299;-57
2023/06/08 01:00:16;;;;;;;;;;;21.20;89.30;;;;;;5057782;28;19908;-58
2023/06/08 01:02:42;;;;;;;;;;;21.20;89.70;;;;;;5057812;28;20418;-57
2023/06/08 01:05:07;;;;;;;;;;;21.20;87.70;;;;;;5057667;28;19992;-58
2023/06/08 01:07:36;;;;;;;;;;;21.20;90.40;;;;;;5057870;28;19953;-57
2023/06/08 01:10:13;;;;;;;;;;;21.20;91.80;;;;;;5057825;28;19955;-57
2023/06/08 01:12:51;;;;;;;;;;;21.20;93.50;;;;;;5057463;28;20012;-57
2023/06/08 01:15:23;;;;;;;;;;;21.20;92.50;;;;;;5057482;28;19916;-58
2023/06/08 01:17:57;;;;;;;;;;;21.20;93.50;;;;;;5057591;28;19913;-58
2023/06/08 01:20:38;;;;;;;;;;;21.20;90.00;;;;;;5057277;28;19970;-57
2023/06/08 01:23:08;;;;;;;;;;;21.20;88.80;;;;;;5057605;28;19927;-56
2023/06/08 01:25:35;;;;;;;;;;;21.20;93.30;;;;;;5057226;28;19908;-57
2023/06/08 01:28:15;;;;;;;;;;;21.20;90.80;;;;;;5057570;28;19909;-57
2023/06/08 01:30:42;;;;;;;;;;;21.20;92.00;;;;;;5057823;28;19909;-57
2023/06/08 01:33:10;;;;;;;;;;;21.30;93.10;;;;;;5057604;28;19954;-57
2023/06/08 01:35:36;;;;;;;;;;;21.20;91.60;;;;;;5057490;28;19916;-57
2023/06/08 01:38:33;;;;;;;;;;;21.20;93.10;;;;;;5057397;28;19909;-57
2023/06/08 01:41:04;;;;;;;;;;;21.20;90.50;;;;;;5034619;28;19915;-57
2023/06/08 01:43:31;;;;;;;;;;;21.20;91.40;;;;;;5057688;28;19909;-57
2023/06/08 01:45:59;;;;;;;;;;;21.20;91.70;;;;;;5060219;28;19948;-57
2023/06/08 01:48:26;;;;;;;;;;;21.20;92.30;;;;;;5042986;28;19935;-58
2023/06/08 01:50:51;;;;;;;;;;;21.20;91.80;;;;;;5061533;28;19909;-57
2023/06/08 01:53:17;;;;;;;;;;;21.20;91.20;;;;;;5061266;28;19962;-57
2023/06/08 01:55:43;;;;;;;;;;;21.20;92.20;;;;;;5060940;28;19912;-57
2023/06/08 01:58:08;;;;;;;;;;;21.10;91.70;;;;;;5061364;28;19912;-57
2023/06/08 02:00:34;;;;;;;;;;;21.20;92.10;;;;;;5061160;28;19916;-57
2023/06/08 02:02:59;;;;;;;;;;;21.20;92.20;;;;;;5061384;28;19909;-57
2023/06/08 02:05:25;;;;;;;;;;;21.20;92.00;;;;;;5060769;28;19913;-58
2023/06/08 02:07:51;;;;;;;;;;;21.10;92.10;;;;;;5060979;28;20000;-58
2023/06/08 02:10:17;;;;;;;;;;;21.10;92.10;;;;;;5060740;28;19915;-58
2023/06/08 02:12:42;;;;;;;;;;;21.10;92.30;;;;;;5060364;28;19912;-58
2023/06/08 02:15:08;;;;;;;;;;;21.10;92.80;;;;;;5061029;28;19948;-56
2023/06/08 02:17:35;;;;;;;;;;;21.10;91.00;;;;;;5060663;28;19919;-57
2023/06/08 02:20:06;;;;;;;;;;;21.10;92.30;;;;;;5060796;28;19931;-57
2023/06/08 02:22:32;;;;;;;;;;;21.00;92.90;;;;;;5060561;28;19918;-57
2023/06/08 02:24:58;;;;;;;;;;;21.10;93.10;;;;;;5060311;28;20287;-57
2023/06/08 02:27:23;;;;;;;;;;;21.00;91.40;;;;;;5060645;28;19909;-57
2023/06/08 02:29:49;;;;;;;;;;;21.00;92.10;;;;;;5060341;28;19909;-57
2023/06/08 02:32:15;;;;;;;;;;;21.00;92.00;;;;;;5060547;28;20581;-57
2023/06/08 02:34:41;;;;;;;;;;;21.00;93.00;;;;;;5060081;28;19944;-57
2023/06/08 02:37:07;;;;;;;;;;;21.00;92.10;;;;;;5060377;28;19966;-57
2023/06/08 02:39:32;;;;;;;;;;;21.00;92.20;;;;;;5060056;28;19912;-57
2023/06/08 02:41:58;;;;;;;;;;;21.00;92.00;;;;;;5060099;28;19916;-58
2023/06/08 02:44:24;;;;;;;;;;;21.00;91.70;;;;;;5060170;28;19966;-58
2023/06/08 02:46:50;;;;;;;;;;;21.00;91.60;;;;;;5060050;28;19931;-58
2023/06/08 02:49:15;;;;;;;;;;;21.00;93.10;;;;;;5060519;28;19908;-58
2023/06/08 02:51:42;;;;;;;;;;;21.00;91.30;;;;;;5060024;28;19935;-57
2023/06/08 02:54:07;;;;;;;;;;;21.00;91.70;;;;;;5059776;28;20394;-57
2023/06/08 02:56:33;;;;;;;;;;;21.00;93.10;;;;;;5059106;28;19913;-58
2023/06/08 02:58:59;;;;;;;;;;;21.00;91.80;;;;;;5060228;28;19909;-56
2023/06/08 03:01:30;;;;;;;;;;;21.00;92.20;;;;;;5060004;28;19992;-57
2023/06/08 03:03:56;;;;;;;;;;;21.00;92.70;;;;;;5059582;28;19943;-58
2023/06/08 03:06:21;;;;;;;;;;;21.10;91.80;;;;;;5059909;28;19909;-57
2023/06/08 03:08:53;;;;;;;;;;;21.00;92.80;;;;;;5060150;28;20336;-57
2023/06/08 03:11:20;;;;;;;;;;;21.00;91.50;;;;;;5059647;28;19951;-58
2023/06/08 03:13:46;;;;;;;;;;;21.00;91.80;;;;;;5059331;28;19927;-58
2023/06/08 03:16:12;;;;;;;;;;;21.00;92.30;;;;;;5059668;28;19952;-57
2023/06/08 03:18:39;;;;;;;;;;;21.00;92.00;;;;;;5059903;28;19909;-57
2023/06/08 03:21:08;;;;;;;;;;;21.10;92.60;;;;;;5059667;28;19909;-57
2023/06/08 03:23:37;;;;;;;;;;;21.10;91.60;;;;;;5059211;28;20380;-56
2023/06/08 03:26:03;;;;;;;;;;;21.00;92.50;;;;;;5059257;28;19912;-57
2023/06/08 03:28:29;;;;;;;;;;;21.00;92.00;;;;;;5059285;28;19958;-57
2023/06/08 03:30:55;;;;;;;;;;;21.10;92.50;;;;;;5059211;28;19908;-57
2023/06/08 03:33:21;;;;;;;;;;;21.00;92.10;;;;;;5059464;28;19908;-57
2023/06/08 03:35:47;;;;;;;;;;;21.00;92.00;;;;;;5059027;28;19912;-56
2023/06/08 03:38:13;;;;;;;;;;;21.00;92.00;;;;;;5059297;28;19912;-57
2023/06/08 03:40:39;;;;;;;;;;;21.00;92.40;;;;;;5058819;28;19916;-58
2023/06/08 03:43:05;;;;;;;;;;;21.00;92.00;;;;;;5058873;28;20372;-60
2023/06/08 03:45:31;;;;;;;;;;;21.00;91.60;;;;;;5059218;28;19927;-59
2023/06/08 03:47:57;;;;;;;;;;;21.00;91.20;;;;;;5058759;28;19954;-60
2023/06/08 03:50:23;;;;;;;;;;;21.00;91.90;;;;;;5058977;28;19920;-59
2023/06/08 03:52:48;;;;;;;;;;;21.00;91.40;;;;;;5058796;28;20275;-59
2023/06/08 03:55:16;;;;;;;;;;;21.00;91.80;;;;;;5059187;28;19909;-59
2023/06/08 03:57:42;;;;;;;;;;;20.90;91.70;;;;;;5058559;28;20374;-59
2023/06/08 04:00:11;;;;;;;;;;;20.90;91.20;;;;;;5059095;28;19908;-59
2023/06/08 04:02:37;;;;;;;;;;;20.90;91.80;;;;;;5058736;28;19909;-60
2023/06/08 04:05:03;;;;;;;;;;;20.90;91.30;;;;;;5058432;28;19913;-59
2023/06/08 04:07:29;;;;;;;;;;;20.90;91.30;;;;;;5058690;28;19944;-59
2023/06/08 04:09:55;;;;;;;;;;;20.90;91.60;;;;;;5058609;28;19909;-59
2023/06/08 04:12:21;;;;;;;;;;;20.90;91.20;;;;;;5058537;28;20291;-59
2023/06/08 04:14:48;;;;;;;;;;;20.90;91.20;;;;;;5058014;28;20387;-60
2023/06/08 04:17:13;;;;;;;;;;;20.90;91.10;;;;;;5058098;28;20325;-59
2023/06/08 04:19:39;;;;;;;;;;;20.90;90.80;;;;;;5058480;28;19908;-59
2023/06/08 04:22:05;;;;;;;;;;;20.90;90.90;;;;;;5058194;28;19912;-60
2023/06/08 04:24:32;;;;;;;;;;;20.90;90.90;;;;;;5057855;28;19908;-60
2023/06/08 04:26:57;;;;;;;;;;;20.90;90.60;;;;;;5058313;28;19908;-59
2023/06/08 04:29:23;;;;;;;;;;;20.90;90.50;;;;;;5058032;28;20375;-59
2023/06/08 04:31:49;;;;;;;;;;;20.90;90.50;;;;;;5058337;28;19909;-59
2023/06/08 04:34:15;;;;;;;;;;;20.90;90.50;;;;;;5058072;28;19931;-60
2023/06/08 04:36:44;;;;;;;;;;;20.90;90.50;;;;;;5058236;28;19913;-60
2023/06/08 04:39:10;;;;;;;;;;;20.80;90.70;;;;;;5058045;28;19909;-60
2023/06/08 04:41:36;;;;;;;;;;;20.90;90.70;;;;;;5058152;28;19909;-59
2023/06/08 04:44:02;;;;;;;;;;;20.80;90.50;;;;;;5058262;28;20014;-60
2023/06/08 04:46:30;;;;;;;;;;;20.80;90.20;;;;;;5058063;28;19959;-59
2023/06/08 04:48:56;;;;;;;;;;;20.90;90.20;;;;;;5057901;28;19909;-60
2023/06/08 04:51:29;;;;;;;;;;;20.80;90.00;;;;;;5058391;28;20277;-59
2023/06/08 04:53:59;;;;;;;;;;;20.80;89.90;;;;;;5057888;28;19909;-59
2023/06/08 04:56:29;;;;;;;;;;;20.80;89.70;;;;;;5057742;28;19920;-59
2023/06/08 04:58:56;;;;;;;;;;;20.80;89.90;;;;;;5057848;28;19909;-59
2023/06/08 05:01:22;;;;;;;;;;;20.80;89.50;;;;;;5058030;28;19909;-60
2023/06/08 05:03:47;;;;;;;;;;;20.80;89.90;;;;;;5057681;28;19908;-59
2023/06/08 05:06:13;;;;;;;;;;;20.80;89.80;;;;;;5057943;28;19916;-59
2023/06/08 05:08:39;;;;;;;;;;;20.80;90.00;;;;;;5057937;28;19908;-59
2023/06/08 05:11:05;;;;;;;;;;;20.80;89.30;;;;;;5057654;28;19908;-59
2023/06/08 05:13:30;;;;;;;;;;;20.80;89.80;;;;;;5057533;28;19920;-60
2023/06/08 05:15:58;;;;;;;;;;;20.80;90.00;;;;;;5057766;28;19913;-59
2023/06/08 05:18:28;;;;;;;;;;;20.80;89.50;;;;;;5039615;28;19909;-59
2023/06/08 05:20:53;;;;;;;;;;;20.90;89.70;;;;;;5060731;28;19984;-59
2023/06/08 05:23:19;;;;;;;;;;;20.90;89.30;;;;;;5062100;28;20440;-60
2023/06/08 05:25:45;;;;;;;;;;;20.90;89.30;;;;;;5061931;28;19909;-59
2023/06/08 05:28:10;;;;;;;;;;;20.80;89.30;;;;;;5061825;28;19909;-59
2023/06/08 05:30:36;;;;;;;;;;;20.80;89.50;;;;;;5061669;28;19937;-59
2023/06/08 05:33:02;;;;;;;;;;;20.80;88.30;;;;;;5043606;28;19915;-59
2023/06/08 05:35:28;;;;;;;;;;;20.80;89.30;;;;;;5061563;28;19916;-59
2023/06/08 05:37:53;;;;;;;;;;;20.80;89.50;;;;;;5060852;28;20027;-60
2023/06/08 05:40:19;;;;;;;;;;;20.80;88.80;;;;;;5061275;28;19909;-59
2023/06/08 05:42:45;;;;;;;;;;;20.80;88.00;;;;;;5061394;28;19916;-59
2023/06/08 05:45:11;;;;;;;;;;;20.90;89.10;;;;;;5061199;28;19909;-59
2023/06/08 05:47:37;;;;;;;;;;;20.90;88.60;;;;;;5071159;28;19913;-59
2023/06/08 05:50:03;;;;;;;;;;;20.90;88.80;;;;;;5081445;28;20287;-60
2023/06/08 05:52:32;;;;;;;;;;;20.90;88.30;;;;;;5081348;28;19909;-59
2023/06/08 05:54:58;;;;;;;;;;;20.90;89.40;;;;;;5080891;28;19908;-59
2023/06/08 05:57:23;;;;;;;;;;;20.90;87.70;;;;;;5081236;28;19918;-59
2023/06/08 05:59:50;;;;;;;;;;;20.90;87.70;;;;;;5080959;28;20272;-60
2023/06/08 06:02:16;;;;;;;;;;;20.90;88.50;;;;;;5080853;28;20011;-59
2023/06/08 06:04:42;;;;;;;;;;;21.00;88.30;;;;;;5080744;28;19908;-59
2023/06/08 06:07:08;;;;;;;;;;;21.00;87.80;;;;;;5081245;28;19908;-59
2023/06/08 06:09:34;;;;;;;;;;;21.00;87.40;;;;;;5080865;28;19941;-59
2023/06/08 06:11:59;;;;;;;;;;;21.10;86.80;;;;;;5081148;28;19912;-59
2023/06/08 06:14:27;;;;;;;;;;;21.00;85.30;;;;;;5080606;28;20402;-59
2023/06/08 06:16:52;;;;;;;;;;;21.10;83.80;;;;;;5080812;28;19912;-59
2023/06/08 06:19:21;;;;;;;;;;;21.10;84.70;;;;;;5080566;28;20360;-59
2023/06/08 06:21:46;;;;;;;;;;;21.10;85.10;;;;;;5080524;28;20398;-60
2023/06/08 06:24:12;;;;;;;;;;;21.10;84.70;;;;;;5080607;28;19912;-59
2023/06/08 06:26:38;;;;;;;;;;;21.20;86.10;;;;;;5080660;28;19930;-59
2023/06/08 06:29:03;;;;;;;;;;;21.20;86.60;;;;;;5062366;28;20407;-59
2023/06/08 06:31:31;;;;;;;;;;;21.20;85.80;;;;;;5078923;28;19908;-59
2023/06/08 06:33:56;;;;;;;;;;;21.20;85.30;;;;;;5074549;28;19952;-59
2023/06/08 06:36:23;;;;;;;;;;;21.20;86.00;;;;;;5060096;28;19912;-59
2023/06/08 06:38:49;;;;;;;;;;;21.20;86.20;;;;;;5060466;28;19913;-59
2023/06/08 06:41:15;;;;;;;;;;;21.20;86.60;;;;;;5060449;28;19916;-59
2023/06/08 06:43:40;;;;;;;;;;;21.30;85.50;;;;;;5059309;28;20264;-59
2023/06/08 06:46:06;;;;;;;;;;;21.30;84.30;;;;;;5056822;28;19919;-59
2023/06/08 06:48:32;;;;;;;;;;;21.40;86.00;;;;;;5057989;28;19913;-60
2023/06/08 06:50:57;;;;;;;;;;;21.40;83.70;;;;;;5041959;28;19959;-59
2023/06/08 06:53:23;;;;;;;;;;;21.40;82.10;;;;;;5059572;28;19913;-59
2023/06/08 06:55:48;;;;;;;;;;;21.40;85.30;;;;;;5059884;28;19930;-59
2023/06/08 06:58:15;;;;;;;;;;;21.50;82.10;;;;;;5058947;28;19909;-59
2023/06/08 07:00:40;;;;;;;;;;;21.50;82.10;;;;;;5059245;28;20406;-60
2023/06/08 07:03:07;;;;;;;;;;;21.50;82.90;;;;;;5059912;28;19980;-60
2023/06/08 07:05:33;;;;;;;;;;;21.50;81.80;;;;;;5058749;28;19979;-60
2023/06/08 07:07:59;;;;;;;;;;;21.50;82.00;;;;;;5059795;28;19909;-60
2023/06/08 07:10:25;;;;;;;;;;;21.50;82.80;;;;;;5059877;28;20237;-59
2023/06/08 07:12:50;;;;;;;;;;;21.60;82.30;;;;;;5059673;28;19955;-59
2023/06/08 07:15:17;;;;;;;;;;;21.60;83.80;;;;;;5059447;28;19920;-59
2023/06/08 07:17:44;;;;;;;;;;;21.70;81.90;;;;;;5059084;28;19983;-60
2023/06/08 07:20:10;;;;;;;;;;;21.70;84.30;;;;;;5059387;28;19908;-59
2023/06/08 07:22:36;;;;;;;;;;;21.70;82.40;;;;;;5059693;28;20000;-59
2023/06/08 07:25:05;;;;;;;;;;;21.80;82.80;;;;;;5059389;28;19944;-60
2023/06/08 07:27:30;;;;;;;;;;;21.70;81.40;;;;;;5059517;28;20010;-59
2023/06/08 07:29:56;;;;;;;;;;;21.80;83.60;;;;;;5059511;28;19908;-60
2023/06/08 07:32:22;;;;;;;;;;;21.90;84.40;;;;;;5059052;28;19909;-59
2023/06/08 07:34:48;;;;;;;;;;;21.90;82.20;;;;;;5059575;28;19909;-59
2023/06/08 07:37:13;;;;;;;;;;;22.00;83.40;;;;;;5059342;28;19913;-59
2023/06/08 07:39:39;;;;;;;;;;;22.00;81.10;;;;;;5059090;28;19909;-59
2023/06/08 07:42:05;;;;;;;;;;;22.00;81.20;;;;;;5059096;28;19915;-60
2023/06/08 07:44:31;;;;;;;;;;;22.10;81.80;;;;;;5058942;28;20364;-59
2023/06/08 07:46:57;;;;;;;;;;;22.00;80.10;;;;;;5059420;28;20009;-59
2023/06/08 07:49:23;;;;;;;;;;;22.10;83.60;;;;;;5058827;28;19913;-60
2023/06/08 07:51:49;;;;;;;;;;;22.20;83.80;;;;;;5058940;28;19908;-59
2023/06/08 07:54:19;;;;;;;;;;;22.30;82.90;;;;;;5058798;28;19960;-59
2023/06/08 07:56:45;;;;;;;;;;;22.30;79.70;;;;;;5059133;28;19939;-59
2023/06/08 07:59:11;;;;;;;;;;;22.40;83.70;;;;;;5058697;28;19909;-59
2023/06/08 08:01:37;;;;;;;;;;;22.50;81.10;;;;;;5055771;28;20394;-59
2023/06/08 08:04:02;;;;;;;;;;;22.70;80.90;;;;;;5058566;28;19913;-59
2023/06/08 08:06:28;;;;;;;;;;;22.70;80.80;;;;;;5058540;28;19920;-59
2023/06/08 08:08:54;;;;;;;;;;;22.70;78.00;;;;;;5058509;28;20415;-60
2023/06/08 08:11:20;;;;;;;;;;;22.80;80.60;;;;;;5040437;28;19955;-59
2023/06/08 08:13:45;;;;;;;;;;;23.00;80.00;;;;;;5058672;28;19981;-60
2023/06/08 08:16:11;;;;;;;;;;;23.00;78.00;;;;;;5058574;28;19943;-60
2023/06/08 08:18:37;;;;;;;;;;;23.10;81.40;;;;;;5058897;28;19948;-60
2023/06/08 08:21:02;;;;;;;;;;;23.10;79.70;;;;;;5058435;28;19913;-60
2023/06/08 08:23:28;;;;;;;;;;;23.20;78.00;;;;;;5058565;28;19908;-59
2023/06/08 08:25:53;;;;;;;;;;;23.40;81.30;;;;;;5057615;28;19916;-60
2023/06/08 08:28:21;;;;;;;;;;;23.50;74.40;;;;;;5056209;28;20206;-60
2023/06/08 08:30:47;;;;;;;;;;;23.50;74.80;;;;;;5057053;28;19909;-60
2023/06/08 08:33:13;;;;;;;;;;;23.50;75.80;;;;;;5058197;28;20398;-59
2023/06/08 08:35:38;;;;;;;;;;;23.60;77.30;;;;;;5058157;28;19967;-60
2023/06/08 08:38:04;;;;;;;;;;;23.70;78.90;;;;;;5058499;28;20368;-60
2023/06/08 08:40:29;;;;;;;;;;;23.80;77.80;;;;;;5040008;28;19913;-60
2023/06/08 08:43:00;;;;;;;;;;;23.70;77.70;;;;;;5058208;28;19923;-60
2023/06/08 08:45:28;;;;;;;;;;;23.70;79.10;;;;;;5058200;28;19935;-60
2023/06/08 08:47:54;;;;;;;;;;;23.70;72.70;;;;;;5058034;28;19912;-59
2023/06/08 08:50:19;;;;;;;;;;;23.70;75.10;;;;;;5057950;28;19915;-60
2023/06/08 08:52:46;;;;;;;;;;;23.80;77.30;;;;;;5058161;28;19916;-60
2023/06/08 08:55:11;;;;;;;;;;;23.90;78.10;;;;;;5057109;28;19908;-60
2023/06/08 08:57:37;;;;;;;;;;;23.80;75.20;;;;;;5057801;28;20472;-60
2023/06/08 09:00:06;;;;;;;;;;;23.90;76.80;;;;;;5057867;28;19913;-59
2023/06/08 09:02:35;;;;;;;;;;;24.00;74.20;;;;;;5057744;28;20007;-60
2023/06/08 09:05:03;;;;;;;;;;;24.00;74.50;;;;;;5057968;28;20017;-60
2023/06/08 09:07:29;;;;;;;;;;;24.10;78.00;;;;;;5057744;28;19916;-60
2023/06/08 09:10:18;;;;;;;;;;;24.30;75.60;;;;;;5058170;28;20268;-60
2023/06/08 09:12:45;;;;;;;;;;;24.40;78.10;;;;;;5049436;28;19913;-60
2023/06/08 09:15:16;;;;;;;;;;;24.70;76.60;;;;;;5057419;28;19917;-59
2023/06/08 09:17:44;;;;;;;;;;;24.80;75.90;;;;;;5057594;28;19913;-60
2023/06/08 09:20:10;;;;;;;;;;;25.00;76.80;;;;;;5057568;28;20400;-59
2023/06/08 09:22:36;;;;;;;;;;;25.00;75.10;;;;;;5057675;28;19908;-60
2023/06/08 09:25:03;;;;;;;;;;;25.10;74.90;;;;;;5039676;28;19913;-60
2023/06/08 09:27:30;;;;;;;;;;;25.30;76.50;;;;;;5057781;28;19943;-60
2023/06/08 09:29:57;;;;;;;;;;;25.50;74.40;;;;;;5057693;28;19916;-60
2023/06/08 09:32:31;;;;;;;;;;;25.50;76.80;;;;;;5058086;28;20406;-60
2023/06/08 09:35:01;;;;;;;;;;;25.70;76.70;;;;;;5057510;28;19915;-60
2023/06/08 09:37:29;;;;;;;;;;;25.20;74.20;;;;;;5057454;28;19912;-60
2023/06/08 09:39:55;;;;;;;;;;;25.80;75.80;;;;;;5057595;28;19908;-59
2023/06/08 09:42:21;;;;;;;;;;;26.00;73.30;;;;;;5057717;28;19988;-60
2023/06/08 09:44:46;;;;;;;;;;;26.00;75.70;;;;;;5057790;28;20334;-60
2023/06/08 09:47:22;;;;;;;;;;;26.10;70.90;;;;;;5057430;28;19963;-60
2023/06/08 09:49:50;;;;;;;;;;;26.20;72.40;;;;;;5057491;28;19909;-60
2023/06/08 09:52:17;;;;;;;;;;;26.30;70.90;;;;;;5057326;28;19995;-60
2023/06/08 09:54:45;;;;;;;;;;;26.50;72.90;;;;;;5057714;28;19909;-60
2023/06/08 09:57:11;;;;;;;;;;;26.60;70.20;;;;;;5039661;28;20011;-60
2023/06/08 09:59:38;;;;;;;;;;;26.80;69.30;;;;;;5057362;28;19980;-60
2023/06/08 10:02:13;;;;;;;;;;;26.70;68.30;;;;;;5057132;28;20356;-60
2023/06/08 10:04:41;;;;;;;;;;;26.90;70.60;;;;;;5057145;28;20382;-60
2023/06/08 10:07:10;;;;;;;;;;;27.10;66.30;;;;;;5060318;28;20323;-59
2023/06/08 10:09:37;;;;;;;;;;;27.10;68.30;;;;;;5060739;28;19955;-60
2023/06/08 10:12:03;;;;;;;;;;;27.30;70.60;;;;;;5060957;28;20421;-60
2023/06/08 10:14:29;;;;;;;;;;;27.40;66.90;;;;;;5061200;28;19967;-60
2023/06/08 10:16:56;;;;;;;;;;;27.70;69.90;;;;;;5060521;28;19912;-60
2023/06/08 10:19:22;;;;;;;;;;;27.90;66.00;;;;;;5061331;28;19909;-60
2023/06/08 10:21:48;;;;;;;;;;;28.30;66.70;;;;;;5060895;28;19916;-60
2023/06/08 10:24:15;;;;;;;;;;;28.70;65.10;;;;;;5060767;28;19916;-60
2023/06/08 10:26:40;;;;;;;;;;;29.00;65.00;;;;;;5060323;28;19921;-60
2023/06/08 10:29:08;;;;;;;;;;;29.40;67.50;;;;;;5060875;28;19909;-60
2023/06/08 10:31:37;;;;;;;;;;;29.90;64.20;;;;;;5060346;28;19912;-60
2023/06/08 10:34:13;;;;;;;;;;;30.00;59.30;;;;;;5060584;28;19909;-60
2023/06/08 10:36:40;;;;;;;;;;;30.80;57.40;;;;;;5060271;28;19928;-60
2023/06/08 10:39:07;;;;;;;;;;;31.90;60.80;;;;;;5060282;28;19952;-60
2023/06/08 10:41:37;;;;;;;;;;;32.80;61.50;;;;;;5060338;28;20004;-60
2023/06/08 10:44:04;;;;;;;;;;;33.60;54.70;;;;;;5060103;28;19913;-60
2023/06/08 10:46:42;;;;;;;;;;;33.90;51.50;;;;;;5059679;28;19909;-60
2023/06/08 10:49:08;;;;;;;;;;;34.00;55.90;;;;;;5059996;28;19952;-60
2023/06/08 10:51:43;;;;;;;;;;;34.10;47.20;;;;;;5060016;28;19916;-60
2023/06/08 10:54:09;;;;;;;;;;;34.10;47.00;;;;;;5059872;28;19956;-60
2023/06/08 10:56:46;;;;;;;;;;;34.60;45.80;;;;;;5060336;28;19913;-60
2023/06/08 10:59:12;;;;;;;;;;;34.40;43.90;;;;;;5060350;28;20368;-60
2023/06/08 11:01:37;;;;;;;;;;;33.80;43.30;;;;;;5058457;28;19978;-60
2023/06/08 11:04:04;;;;;;;;;;;32.70;45.30;;;;;;5059840;28;19913;-60
2023/06/08 11:06:32;;;;;;;;;;;32.00;44.50;;;;;;5059673;28;19915;-60
2023/06/08 11:08:58;;;;;;;;;;;31.00;46.00;;;;;;5059731;28;19924;-60
2023/06/08 11:11:25;;;;;;;;;;;30.40;46.70;;;;;;5059706;28;19909;-60
2023/06/08 11:13:51;;;;;;;;;;;29.70;48.60;;;;;;5059430;28;20434;-60
2023/06/08 11:16:20;;;;;;;;;;;29.50;49.80;;;;;;5059537;28;19913;-59
2023/06/08 11:18:46;;;;;;;;;;;28.90;51.30;;;;;;5058986;28;19915;-60
2023/06/08 11:21:12;;;;;;;;;;;28.50;52.70;;;;;;5059519;28;19914;-60
2023/06/08 11:23:37;;;;;;;;;;;28.10;55.60;;;;;;5059244;28;20266;-60
2023/06/08 11:26:03;;;;;;;;;;;27.70;54.70;;;;;;5059537;28;19967;-60
2023/06/08 11:28:29;;;;;;;;;;;27.30;56.60;;;;;;5059608;28;19915;-60
2023/06/08 11:30:55;;;;;;;;;;;27.00;60.10;;;;;;5059341;28;19909;-60
2023/06/08 11:33:21;;;;;;;;;;;27.00;60.80;;;;;;5059060;28;19909;-60
2023/06/08 11:35:51;;;;;;;;;;;27.20;61.00;;;;;;5059112;28;19909;-61
2023/06/08 11:38:16;;;;;;;;;;;27.50;62.00;;;;;;5058937;28;19962;-60
2023/06/08 11:40:42;;;;;;;;;;;27.60;61.70;;;;;;5059107;28;19913;-61
2023/06/08 11:43:12;;;;;;;;;;;28.20;61.00;;;;;;5059131;28;19955;-61
2023/06/08 11:45:39;;;;;;;;;;;28.50;60.40;;;;;;5059754;28;19908;-61
2023/06/08 11:48:05;;;;;;;;;;;28.90;59.00;;;;;;5059180;28;19909;-61
2023/06/08 11:50:30;;;;;;;;;;;28.80;58.50;;;;;;5059150;28;20390;-61
2023/06/08 11:52:57;;;;;;;;;;;28.30;58.00;;;;;;5059025;28;19916;-61
2023/06/08 11:55:25;;;;;;;;;;;27.90;58.80;;;;;;5059006;28;19921;-60
2023/06/08 11:57:55;;;;;;;;;;;27.60;60.60;;;;;;5058495;28;20334;-60
2023/06/08 12:00:27;;;;;;;;;;;27.50;60.80;;;;;;5058619;28;20363;-60
2023/06/08 12:02:54;;;;;;;;;;;27.00;61.80;;;;;;5058707;28;19916;-61
2023/06/08 12:05:42;;;;;;;;;;;26.70;64.50;;;;;;5058612;28;20328;-60
2023/06/08 12:08:14;;;;;;;;;;;26.60;64.20;;;;;;5059162;28;19909;-60
2023/06/08 12:10:43;;;;;;;;;;;26.30;68.30;;;;;;5058546;28;19935;-60
2023/06/08 12:13:16;;;;;;;;;;;26.10;67.00;;;;;;5058494;28;19920;-60
2023/06/08 12:15:43;;;;;;;;;;;26.10;67.70;;;;;;5040558;28;19919;-60
2023/06/08 12:18:09;;;;;;;;;;;26.00;68.30;;;;;;5058118;28;20356;-60
2023/06/08 12:20:35;;;;;;;;;;;25.90;70.10;;;;;;5058545;28;19908;-60
2023/06/08 12:23:02;;;;;;;;;;;25.80;71.30;;;;;;5058515;28;19909;-60
2023/06/08 12:25:28;;;;;;;;;;;25.70;73.30;;;;;;5058164;28;20275;-60
2023/06/08 12:27:54;;;;;;;;;;;25.70;75.70;;;;;;5058413;28;19913;-60
2023/06/08 12:30:20;;;;;;;;;;;25.70;75.80;;;;;;5058571;28;19974;-60
2023/06/08 12:32:46;;;;;;;;;;;25.60;78.30;;;;;;5058245;28;19913;-60
2023/06/08 12:35:11;;;;;;;;;;;25.60;76.50;;;;;;5058010;28;19923;-60
2023/06/08 12:37:37;;;;;;;;;;;25.50;79.00;;;;;;5039982;28;19913;-60
2023/06/08 12:40:05;;;;;;;;;;;25.50;80.50;;;;;;5058431;28;19952;-60
2023/06/08 12:42:31;;;;;;;;;;;25.30;81.30;;;;;;5058349;28;19909;-60
2023/06/08 12:44:57;;;;;;;;;;;25.10;81.30;;;;;;5057949;28;19909;-61
2023/06/08 12:47:22;;;;;;;;;;;25.00;80.90;;;;;;5057985;28;20422;-60
2023/06/08 12:49:48;;;;;;;;;;;24.90;86.50;;;;;;5058113;28;19916;-60
2023/06/08 12:52:17;;;;;;;;;;;24.80;83.80;;;;;;5058117;28;20004;-60
2023/06/08 12:54:44;;;;;;;;;;;24.70;85.80;;;;;;5058008;28;19909;-60
2023/06/08 12:57:10;;;;;;;;;;;24.60;93.10;;;;;;5057494;28;20412;-60
2023/06/08 12:59:36;;;;;;;;;;;24.40;94.90;;;;;;5057655;28;19999;-60
2023/06/08 13:02:02;;;;;;;;;;;24.50;93.00;;;;;;5057995;28;19959;-60
2023/06/08 13:04:27;;;;;;;;;;;24.60;91.80;;;;;;5057713;28;19909;-60
2023/06/08 13:06:53;;;;;;;;;;;24.60;92.10;;;;;;5058018;28;20354;-60
2023/06/08 13:09:19;;;;;;;;;;;24.60;96.40;;;;;;5058015;28;20336;-60
2023/06/08 13:11:45;;;;;;;;;;;24.50;99.90;;;;;;5057557;28;19962;-60
2023/06/08 13:14:10;;;;;;;;;;;24.30;99.90;;;;;;5039493;28;19927;-60
2023/06/08 13:16:36;;;;;;;;;;;24.50;96.10;;;;;;5057302;28;19913;-60
2023/06/08 13:19:02;;;;;;;;;;;24.60;98.80;;;;;;5058045;28;19913;-60
2023/06/08 13:21:31;;;;;;;;;;;24.70;94.80;;;;;;5057710;28;19931;-60
2023/06/08 13:23:57;;;;;;;;;;;24.70;93.80;;;;;;5057798;28;19908;-60
2023/06/08 13:26:24;;;;;;;;;;;24.80;94.40;;;;;;5057576;28;20000;-60
2023/06/08 13:28:49;;;;;;;;;;;24.70;93.80;;;;;;5057888;28;19915;-60
2023/06/08 13:31:15;;;;;;;;;;;24.70;92.60;;;;;;5057541;28;20000;-60
2023/06/08 13:33:40;;;;;;;;;;;24.80;91.40;;;;;;5057434;28;19916;-60
2023/06/08 13:36:06;;;;;;;;;;;24.90;95.70;;;;;;5057626;28;19909;-60
2023/06/08 13:38:32;;;;;;;;;;;25.00;93.30;;;;;;5057549;28;19908;-60
2023/06/08 13:40:57;;;;;;;;;;;25.00;95.10;;;;;;5058693;28;19909;-60
2023/06/08 13:43:23;;;;;;;;;;;25.00;93.20;;;;;;5061395;28;19912;-60
2023/06/08 13:45:57;;;;;;;;;;;25.10;98.10;;;;;;5061540;28;20319;-60
2023/06/08 13:48:24;;;;;;;;;;;25.00;97.10;;;;;;5061199;28;20387;-60
2023/06/08 13:50:50;;;;;;;;;;;25.00;94.60;;;;;;5061053;28;20379;-60
2023/06/08 13:53:15;;;;;;;;;;;25.10;96.40;;;;;;5061198;28;19908;-60
2023/06/08 13:55:41;;;;;;;;;;;25.00;94.10;;;;;;5061468;28;20334;-60
2023/06/08 13:58:07;;;;;;;;;;;25.10;96.00;;;;;;5061088;28;19913;-60
2023/06/08 14:00:34;;;;;;;;;;;25.20;93.50;;;;;;5061274;28;19916;-60
2023/06/08 14:03:02;;;;;;;;;;;25.10;94.10;;;;;;5060808;28;21010;-60
2023/06/08 14:05:28;;;;;;;;;;;25.10;93.70;;;;;;5060700;28;20023;-60
2023/06/08 14:07:54;;;;;;;;;;;25.10;95.20;;;;;;5042837;28;19960;-61
2023/06/08 14:10:20;;;;;;;;;;;25.20;96.60;;;;;;5061120;28;19936;-60
2023/06/08 14:12:48;;;;;;;;;;;25.00;97.40;;;;;;5060572;28;19909;-60
2023/06/08 14:15:15;;;;;;;;;;;25.00;97.90;;;;;;5060374;28;19921;-60